Alida, Canada
Current Conditions -  °F | °C
As of 12:00 PM on Friday 24 Oct 2014 (Local Time) from CYEN Reporting Station
Broken Clouds Broken Clouds  
Wind Chill: 59°   Ceiling: 15000
Heat Index: 59°   Visibility: 15mi
Dew Point: 32°   Wind: 29mph
Humidity: 36%   Direction: 280°W
Pressure: 29.84"   Gusts: 35mph
Location:  49.38°N, 101.87°W
Report Text: CYEN 241800Z 28025G30KT 15SM BKN150 15/00 A2984 RMK AC6 SLP114
Loading
Personal Weather Stations






























Interactive Weather Map New forecast layout! Learn more

10-Day Weather Forecast

Advertisements
Track Severe Weather on mobile